Mason Valley Wildlife Refuge, Nevada Weather observations

Data are for 10 minute period ending at time listed.
 Day   Time   Solar   Ave.   Ave.  Ave.  Vector  Max.   Baro.   Total    
  of    of     Rad.   Air    Rel.  Wind   Wind   Wind  Press.  Precip.   
Year   Day            Temp.  Hum.  Speed  Dir.   Gust                    
2016   (PST)  Kw/m2    F      %     mph   deg.    mph    mb.     in.     
-------------------------------------------------------------------------
 147    0:00   0.00   49.5    88    1.7   230     3.5   870.5    0.01 
 147    0:10   0.00   49.5    89    4.2   218     6.6   870.4    0.01 
 147    0:20   0.00   49.5    89    3.9   231     6.2   870.3    0.00 
 147    0:30   0.00   49.7    88    2.8   241     4.6   870.3    0.00 
 147    0:40   0.00   49.6    88    2.5   244     3.8   870.3    0.00 
 147    0:50   0.00   49.5    88    1.3   226     3.1   870.4    0.00 
 147    1:00   0.00   49.4    89    1.6   128     2.7   870.4    0.00 
 147    1:10   0.00   49.1    89    1.8   168     3.8   870.2    0.00 
 147    1:20   0.00   48.9    90    2.9   193     4.7   870.1    0.00 
 147    1:30   0.00   48.8    90    1.6   188     4.3   870.1    0.00 
 147    1:40   0.00   48.8    90    2.4   208     3.9   870.1    0.00 
 147    1:50   0.00   48.6    90    2.2   207     4.2   870.1    0.00 
 147    2:00   0.00   48.7    90    2.8   222     3.9   870.0    0.00 
 147    2:10   0.00   48.8    89    1.7   234     3.0   869.9    0.00 
 147    2:20   0.00   48.7    88    1.2   262     2.1   869.9    0.00 
 147    2:30   0.00   48.3    88    1.3   348     2.6   869.8    0.00 
 147    2:40   0.00   47.6    91    2.4   354     2.9   869.8    0.00 
 147    2:50   0.00   47.2    91    1.7   290     2.9   869.8    0.00 
 147    3:00   0.00   47.6    91    1.6   261     2.6   869.7    0.00 
 147    3:10   0.00   47.3    90    0.2   273     0.9   869.7    0.00 
 147    3:20   0.00   46.5    91    0.9   354     1.7   869.6    0.00 
 147    3:30   0.00   46.2    92    0.3   304     1.4   869.5    0.00 
 147    3:40   0.00   46.1    92    1.0   124     2.0   869.5    0.00 
 147    3:50   0.00   45.4    93    0.7   122     1.4   869.6    0.00 
 147    4:00   0.00   45.6    94    0.1   122     1.5   869.6    0.00 
 147    4:10   0.00   45.5    94    0.4   122     1.6   869.6    0.00 
 147    4:20   0.00   44.7    94    0.3   329     1.7   869.6    0.00 
 147    4:30   0.00   44.9    94    0.0     0     0.0   869.6    0.00 
 147    4:40   0.01   44.3    94    0.3    80     1.3   869.6    0.00 
 147    4:50   0.01   44.3    94    0.4    79     1.0   869.7    0.00 
 147    5:00   0.02   44.9    94    0.0     0     0.0   869.7    0.00 
 147    5:10   0.03   44.5    94    1.4    11     3.3   869.8    0.00 
 147    5:20   0.04   43.9    94    1.7   352     2.5   869.9    0.00 
 147    5:30   0.09   45.2    95    0.4   357     1.2   869.9    0.00 
 147    5:40   0.14   48.3    94    0.3   245     1.7   869.9    0.00 
 147    5:50   0.17   50.3    90    2.0   264     3.1   869.9    0.00 
 147    6:00   0.18   51.5    84    3.0   237     5.2   870.1    0.00 
 147    6:10   0.11   51.1    83    3.0   246     5.3   870.1    0.00 
 147    6:20   0.14   51.3    84    2.5   260     4.0   870.2    0.00 
 147    6:30   0.21   52.3    84    2.5   270     3.4   870.3    0.00 
 147    6:40   0.25   53.2    81    2.6   249     4.7   870.3    0.00 
 147    6:50   0.22   53.0    81    2.9   236     4.2   870.4    0.00 
 147    7:00   0.21   53.2    81    2.8   231     4.8   870.4    0.00 
 147    7:10   0.38   54.4    77    2.9   222     4.5   870.4    0.00 
 147    7:20   0.40   55.6    72    2.7   217     5.6   870.3    0.00 
 147    7:30   0.43   56.2    67    3.4   248     5.6   870.3    0.00 
 147    7:40   0.46   57.2    62    2.6   257     5.5   870.4    0.00 
 147    7:50   0.49   57.7    59    1.9   190     4.5   870.3    0.00 
 147    8:00   0.53   58.8    58    2.1   251     4.7   870.3    0.00 
 147    8:10   0.55   58.7    57    2.7   325     5.0   870.4    0.00 
 147    8:20   0.58   59.2    55    2.6   265     7.2   870.3    0.00 
 147    8:30   0.61   59.3    53    3.7   333     6.6   870.3    0.00 
 147    8:40   0.63   59.8    51    3.0   295     7.4   870.3    0.00 
 147    8:50   0.66   60.4    51    2.5   297     6.6   870.3    0.00 
 147    9:00   0.66   60.0    51    2.8   204     5.2   870.3    0.00 
 147    9:10   0.71   61.1    51    3.2   326     7.2   870.3    0.00 
 147    9:20   0.66   60.4    50    3.4   334     8.0   870.3    0.00 
 147    9:30   0.78   61.4    49    3.7   184     7.2   870.3    0.00 
 147    9:40   0.81   62.1    49    4.0   177     6.1   870.3    0.00 
 147    9:50   0.75   62.9    46    3.9    21    10.4   870.2    0.00 
 147   10:00   0.85   64.2    43    3.9    23     8.9   870.1    0.00 
 147   10:10   0.44   62.6    42    5.6    43     9.5   870.1    0.00 
 147   10:20   0.38   62.0    41    3.1    54     6.6   870.1    0.00 
 147   10:30   0.36   62.2    41    3.8    23     7.9   870.1    0.00 
 147   10:40   0.43   62.1    40    2.6    73     6.4   870.1    0.00 
 147   10:50   0.97   64.3    38    2.2    75     7.2   870.0    0.00 
 147   11:00   1.00   64.7    35    3.4    13     6.9   869.9    0.00 
 147   11:10   1.06   65.2    33    4.5    39    10.4   869.8    0.00 
 147   11:20   0.99   65.2    32    5.2   311    10.4   869.7    0.00 
 147   11:30   0.90   66.3    32    6.0   259    11.5   869.6    0.00 
 147   11:40   0.42   65.3    33    5.6   293    11.3   869.6    0.00 
 147   11:50   0.41   63.4    34    5.6   336    10.7   869.7    0.00 
 147   12:00   0.94   65.8    32    4.7   308     9.9   869.5    0.00 
 147   12:10   0.97   67.0    31    3.1   212    10.8   869.5    0.00 
 147   12:20   1.00   67.5    29    4.2   351     8.4   869.4    0.00 
 147   12:30   0.66   67.1    29    4.5   357    11.5   869.3    0.00 
 147   12:40   0.49   65.9    30    6.4   331    12.0   869.3    0.00 
 147   12:50   0.73   66.1    30    4.5   324     8.7   869.2    0.00 
 147   13:00   0.74   67.6    28    2.6   283     7.1   869.1    0.00 
 147   13:10   0.85   68.4    28    1.9   217     6.8   869.0    0.00 
 147   13:20   0.98   69.4    27    4.5   265    10.3   868.7    0.00 
 147   13:30   0.66   69.6    28    4.7   262     9.0   868.6    0.00 
 147   13:40   0.93   69.9    29    3.3   233     8.5   868.4    0.00 
 147   13:50   0.93   70.4    25    5.4   305    12.8   868.2    0.00 
 147   14:00   0.95   70.1    26    5.9   248     9.3   868.2    0.00 
 147   14:10   0.89   69.5    26    3.6   250     8.7   868.0    0.00 
 147   14:20   0.96   70.6    26    3.4   223     8.8   867.9    0.00 
 147   14:30   0.65   69.9    29    4.8   216     8.3   867.8    0.00 
 147   14:40   0.88   69.7    28    5.3   226    12.9   867.7    0.00 
 147   14:50   0.80   71.5    27    5.0   238    10.3   867.5    0.00 
 147   15:00   0.79   69.9    26    6.7   222    12.0   867.5    0.00 
 147   15:10   0.76   70.9    24    5.0   243     9.6   867.5    0.00 
 147   15:20   0.77   71.5    23    4.5   241    10.4   867.4    0.00 
 147   15:30   0.75   71.3    24    4.6   218    10.3   867.2    0.00 
 147   15:40   0.69   71.9    22    6.0   258    11.5   867.2    0.00 
 147   15:50   0.70   71.8    22    5.8   308    10.2   867.1    0.00 
 147   16:00   0.26   70.6    22    3.5   276     7.7   867.0    0.00 
 147   16:10   0.17   68.2    25    5.3   254     8.6   867.0    0.00 
 147   16:20   0.36   68.6    26    2.6   212     5.6   866.9    0.00 
 147   16:30   0.38   69.7    24    1.7   220     4.2   866.8    0.00 
 147   16:40   0.50   71.3    23    2.6   236     5.7   866.7    0.00 
 147   16:50   0.47   70.9    21    2.2   304     6.4   866.6    0.00 
 147   17:00   0.42   71.3    22    4.5   278     9.6   866.5    0.00 
 147   17:10   0.40   71.0    20    6.0   322    12.0   866.5    0.00 
 147   17:20   0.27   70.2    21    6.7   332    12.0   866.4    0.00 
 147   17:30   0.11   68.5    22    5.4   324     9.2   866.4    0.00 
 147   17:40   0.17   68.5    22    4.1   324     7.7   866.5    0.00 
 147   17:50   0.20   69.2    22    4.6   323     8.0   866.6    0.00 
 147   18:00   0.09   68.5    23    4.1   323     7.2   866.6    0.00 
 147   18:10   0.14   67.2    26    4.4   351     7.2   866.6    0.00 
 147   18:20   0.14   67.4    26    4.8    20     7.5   866.6    0.00 
 147   18:30   0.12   67.7    25    4.8    15     8.0   866.6    0.00 
 147   18:40   0.07   67.3    26    3.6    29     5.2   866.7    0.00 
 147   18:50   0.06   66.8    28    1.9    15     3.4   866.8    0.00 
 147   19:00   0.03   66.7    26    2.0   315     2.6   866.8    0.00 
 147   19:10   0.02   65.4    29    4.0     6     7.1   866.9    0.00 
 147   19:20   0.01   64.3    30    3.6    30     4.7   866.9    0.00 
 147   19:30   0.00   64.2    28    1.9    42     3.3   867.0    0.00 
 147   19:40   0.00   62.3    31    0.0    50     0.7   867.0    0.00 
 147   19:50   0.00   61.1    32    0.0     0     0.0   867.1    0.00 
 147   20:00   0.00   60.5    34    0.0     0     0.0   867.1    0.00 
 147   20:10   0.00   59.3    36    1.0    22     1.5   867.2    0.00 
 147   20:20   0.00   58.1    43    1.4   239     1.9   867.2    0.00 
 147   20:30   0.00   55.7    46    2.8   282     4.3   867.3    0.00 
 147   20:40   0.00   54.8    44    2.7   292     5.3   867.4    0.00 
 147   20:50   0.00   58.1    38    0.8   285     6.4   867.5    0.00 
 147   21:00   0.00   52.2    57    4.9   226     6.6   867.6    0.00 
 147   21:10   0.00   55.8    47    3.0   225     3.7   867.6    0.00 
 147   21:20   0.00   54.7    52    1.2   250     2.6   867.7    0.00 
 147   21:30   0.00   53.3    54    0.1   313     1.2   867.8    0.00 
 147   21:40   0.00   55.0    50    2.1     9     3.7   867.8    0.00 

Return to Mason Valley Wildlife Refuge graphs page.


Western Regional Climate Center,wrcc@dri.edu